sensor_id;sensor_type;location;lat;lon;timestamp;temperature;humidity
21944;DHT22;11136;48.778;9.126;2022-11-14T00:01:12;6.60;99.90
21944;DHT22;11136;48.778;9.126;2022-11-14T00:03:38;6.60;99.90
21944;DHT22;11136;48.778;9.126;2022-11-14T00:06:04;6.50;99.90
21944;DHT22;11136;48.778;9.126;2022-11-14T00:08:31;6.60;99.90
21944;DHT22;11136;48.778;9.126;2022-11-14T00:10:56;6.70;99.90
21944;DHT22;11136;48.778;9.126;2022-11-14T00:13:22;6.50;99.90
21944;DHT22;11136;48.778;9.126;2022-11-14T00:15:49;6.50;99.90
21944;DHT22;11136;48.778;9.126;2022-11-14T00:18:15;6.40;99.90
21944;DHT22;11136;48.778;9.126;2022-11-14T00:20:41;6.40;99.90
21944;DHT22;11136;48.778;9.126;2022-11-14T00:23:06;6.40;99.90
21944;DHT22;11136;48.778;9.126;2022-11-14T00:25:32;6.40;99.90
21944;DHT22;11136;48.778;9.126;2022-11-14T00:27:58;6.30;99.90
21944;DHT22;11136;48.778;9.126;2022-11-14T00:30:24;6.30;99.90
21944;DHT22;11136;48.778;9.126;2022-11-14T00:32:49;6.30;99.90
21944;DHT22;11136;48.778;9.126;2022-11-14T00:35:15;6.30;99.90
21944;DHT22;11136;48.778;9.126;2022-11-14T00:37:41;6.30;99.90
21944;DHT22;11136;48.778;9.126;2022-11-14T00:40:07;6.30;99.90
21944;DHT22;11136;48.778;9.126;2022-11-14T00:42:32;6.30;99.90
21944;DHT22;11136;48.778;9.126;2022-11-14T00:44:59;6.30;99.90
21944;DHT22;11136;48.778;9.126;2022-11-14T00:47:24;6.20;99.90
21944;DHT22;11136;48.778;9.126;2022-11-14T00:49:50;6.20;99.90
21944;DHT22;11136;48.778;9.126;2022-11-14T00:52:15;6.20;99.90
21944;DHT22;11136;48.778;9.126;2022-11-14T00:54:41;6.20;99.90
21944;DHT22;11136;48.778;9.126;2022-11-14T00:57:06;6.20;99.90
21944;DHT22;11136;48.778;9.126;2022-11-14T00:59:32;6.10;99.90
21944;DHT22;11136;48.778;9.126;2022-11-14T01:01:57;6.10;99.90
21944;DHT22;11136;48.778;9.126;2022-11-14T01:04:23;6.10;99.90
21944;DHT22;11136;48.778;9.126;2022-11-14T01:06:48;6.10;99.90
21944;DHT22;11136;48.778;9.126;2022-11-14T01:09:14;6.10;99.90
21944;DHT22;11136;48.778;9.126;2022-11-14T01:11:39;6.10;99.90
21944;DHT22;11136;48.778;9.126;2022-11-14T01:14:06;6.00;99.90
21944;DHT22;11136;48.778;9.126;2022-11-14T01:16:32;6.00;99.90
21944;DHT22;11136;48.778;9.126;2022-11-14T01:18:57;6.00;99.90
21944;DHT22;11136;48.778;9.126;2022-11-14T01:21:23;6.00;99.90
21944;DHT22;11136;48.778;9.126;2022-11-14T01:23:49;6.00;99.90
21944;DHT22;11136;48.778;9.126;2022-11-14T01:26:15;5.90;99.90
21944;DHT22;11136;48.778;9.126;2022-11-14T01:28:41;5.90;99.90
21944;DHT22;11136;48.778;9.126;2022-11-14T01:31:18;5.90;99.90
21944;DHT22;11136;48.778;9.126;2022-11-14T01:33:46;5.90;99.90
21944;DHT22;11136;48.778;9.126;2022-11-14T01:36:12;6.00;99.90
21944;DHT22;11136;48.778;9.126;2022-11-14T01:38:37;6.00;99.90
21944;DHT22;11136;48.778;9.126;2022-11-14T01:41:03;6.00;99.90
21944;DHT22;11136;48.778;9.126;2022-11-14T01:43:37;6.10;99.90
21944;DHT22;11136;48.778;9.126;2022-11-14T01:51:39;6.10;99.90
21944;DHT22;11136;48.778;9.126;2022-11-14T01:54:20;6.10;99.90
21944;DHT22;11136;48.778;9.126;2022-11-14T01:56:51;6.20;99.90
21944;DHT22;11136;48.778;9.126;2022-11-14T01:59:21;6.20;99.90
21944;DHT22;11136;48.778;9.126;2022-11-14T02:01:51;6.20;99.90
21944;DHT22;11136;48.778;9.126;2022-11-14T02:04:29;6.20;99.90
21944;DHT22;11136;48.778;9.126;2022-11-14T02:06:58;6.20;99.90
21944;DHT22;11136;48.778;9.126;2022-11-14T02:09:27;6.20;99.90
21944;DHT22;11136;48.778;9.126;2022-11-14T02:11:55;6.30;99.90
21944;DHT22;11136;48.778;9.126;2022-11-14T02:14:22;6.30;99.90
21944;DHT22;11136;48.778;9.126;2022-11-14T02:16:48;6.30;99.90
21944;DHT22;11136;48.778;9.126;2022-11-14T02:19:14;6.30;99.90
21944;DHT22;11136;48.778;9.126;2022-11-14T02:21:40;6.30;99.90
21944;DHT22;11136;48.778;9.126;2022-11-14T02:24:10;6.40;99.90
21944;DHT22;11136;48.778;9.126;2022-11-14T02:26:36;6.40;99.90
21944;DHT22;11136;48.778;9.126;2022-11-14T02:29:04;6.40;99.90
21944;DHT22;11136;48.778;9.126;2022-11-14T02:31:30;6.40;99.90
21944;DHT22;11136;48.778;9.126;2022-11-14T02:33:55;6.40;99.90
21944;DHT22;11136;48.778;9.126;2022-11-14T02:36:21;6.40;99.90
21944;DHT22;11136;48.778;9.126;2022-11-14T02:38:46;6.40;99.90
21944;DHT22;11136;48.778;9.126;2022-11-14T02:41:12;6.50;99.90
21944;DHT22;11136;48.778;9.126;2022-11-14T02:43:37;6.50;99.90
21944;DHT22;11136;48.778;9.126;2022-11-14T02:46:03;6.50;99.90
21944;DHT22;11136;48.778;9.126;2022-11-14T02:48:29;6.50;99.90
21944;DHT22;11136;48.778;9.126;2022-11-14T02:50:54;6.50;99.90
21944;DHT22;11136;48.778;9.126;2022-11-14T02:53:20;6.50;99.90
21944;DHT22;11136;48.778;9.126;2022-11-14T02:55:45;6.40;99.90
21944;DHT22;11136;48.778;9.126;2022-11-14T02:58:11;6.40;99.90
21944;DHT22;11136;48.778;9.126;2022-11-14T03:00:36;6.40;99.90
21944;DHT22;11136;48.778;9.126;2022-11-14T03:03:02;6.30;99.90
21944;DHT22;11136;48.778;9.126;2022-11-14T03:05:27;6.60;99.90
21944;DHT22;11136;48.778;9.126;2022-11-14T03:07:54;6.30;99.90
21944;DHT22;11136;48.778;9.126;2022-11-14T03:10:21;6.20;99.90
21944;DHT22;11136;48.778;9.126;2022-11-14T03:12:47;6.20;99.90
21944;DHT22;11136;48.778;9.126;2022-11-14T03:15:12;6.20;99.90
21944;DHT22;11136;48.778;9.126;2022-11-14T03:17:38;6.20;99.90
21944;DHT22;11136;48.778;9.126;2022-11-14T03:20:05;6.10;99.90
21944;DHT22;11136;48.778;9.126;2022-11-14T03:22:31;6.10;99.90
21944;DHT22;11136;48.778;9.126;2022-11-14T03:24:56;6.10;99.90
21944;DHT22;11136;48.778;9.126;2022-11-14T03:27:22;6.10;99.90
21944;DHT22;11136;48.778;9.126;2022-11-14T03:29:48;6.10;99.90
21944;DHT22;11136;48.778;9.126;2022-11-14T03:32:14;6.20;99.90
21944;DHT22;11136;48.778;9.126;2022-11-14T03:34:39;6.20;99.90
21944;DHT22;11136;48.778;9.126;2022-11-14T03:37:05;6.20;99.90
21944;DHT22;11136;48.778;9.126;2022-11-14T03:39:30;6.20;99.90
21944;DHT22;11136;48.778;9.126;2022-11-14T03:41:56;6.20;99.90
21944;DHT22;11136;48.778;9.126;2022-11-14T03:44:21;6.20;99.90
21944;DHT22;11136;48.778;9.126;2022-11-14T03:46:47;6.20;99.90
21944;DHT22;11136;48.778;9.126;2022-11-14T03:49:12;6.20;99.90
21944;DHT22;11136;48.778;9.126;2022-11-14T03:51:38;6.20;99.90
21944;DHT22;11136;48.778;9.126;2022-11-14T03:54:03;6.10;99.90
21944;DHT22;11136;48.778;9.126;2022-11-14T03:56:29;6.10;99.90
21944;DHT22;11136;48.778;9.126;2022-11-14T03:58:54;6.10;99.90
21944;DHT22;11136;48.778;9.126;2022-11-14T04:01:20;6.00;99.90
21944;DHT22;11136;48.778;9.126;2022-11-14T04:03:45;6.00;99.90
21944;DHT22;11136;48.778;9.126;2022-11-14T04:06:11;6.00;99.90
21944;DHT22;11136;48.778;9.126;2022-11-14T04:08:39;6.00;99.90
21944;DHT22;11136;48.778;9.126;2022-11-14T04:11:04;5.90;99.90
21944;DHT22;11136;48.778;9.126;2022-11-14T04:13:30;5.90;99.90
21944;DHT22;11136;48.778;9.126;2022-11-14T04:15:57;5.90;99.90
21944;DHT22;11136;48.778;9.126;2022-11-14T04:18:23;5.90;99.90
21944;DHT22;11136;48.778;9.126;2022-11-14T04:20:50;5.80;99.90
21944;DHT22;11136;48.778;9.126;2022-11-14T04:23:16;5.80;99.90
21944;DHT22;11136;48.778;9.126;2022-11-14T04:25:43;5.80;99.90
21944;DHT22;11136;48.778;9.126;2022-11-14T04:28:09;5.70;99.90
21944;DHT22;11136;48.778;9.126;2022-11-14T04:30:35;5.80;99.90
21944;DHT22;11136;48.778;9.126;2022-11-14T04:33:01;5.70;99.90
21944;DHT22;11136;48.778;9.126;2022-11-14T04:35:26;5.70;99.90
21944;DHT22;11136;48.778;9.126;2022-11-14T04:37:52;5.70;99.90
21944;DHT22;11136;48.778;9.126;2022-11-14T04:40:17;5.70;99.90
21944;DHT22;11136;48.778;9.126;2022-11-14T04:42:43;5.70;99.90
21944;DHT22;11136;48.778;9.126;2022-11-14T04:45:09;5.80;99.90
21944;DHT22;11136;48.778;9.126;2022-11-14T04:47:34;5.80;99.90
21944;DHT22;11136;48.778;9.126;2022-11-14T04:50:00;5.80;99.90
21944;DHT22;11136;48.778;9.126;2022-11-14T04:52:25;5.90;99.90
21944;DHT22;11136;48.778;9.126;2022-11-14T04:54:51;5.90;99.90
21944;DHT22;11136;48.778;9.126;2022-11-14T04:57:16;5.90;99.90
21944;DHT22;11136;48.778;9.126;2022-11-14T04:59:42;5.90;99.90
21944;DHT22;11136;48.778;9.126;2022-11-14T05:02:08;5.90;99.90
21944;DHT22;11136;48.778;9.126;2022-11-14T05:04:33;5.90;99.90
21944;DHT22;11136;48.778;9.126;2022-11-14T05:06:59;5.90;99.90
21944;DHT22;11136;48.778;9.126;2022-11-14T05:09:25;5.90;99.90
21944;DHT22;11136;48.778;9.126;2022-11-14T05:11:51;5.90;99.90
21944;DHT22;11136;48.778;9.126;2022-11-14T05:14:17;5.90;99.90
21944;DHT22;11136;48.778;9.126;2022-11-14T05:16:42;5.90;99.90
21944;DHT22;11136;48.778;9.126;2022-11-14T05:19:08;5.90;99.90
21944;DHT22;11136;48.778;9.126;2022-11-14T05:21:33;5.90;99.90
21944;DHT22;11136;48.778;9.126;2022-11-14T05:23:59;5.90;99.90
21944;DHT22;11136;48.778;9.126;2022-11-14T05:26:25;5.90;99.90
21944;DHT22;11136;48.778;9.126;2022-11-14T05:28:50;5.90;99.90
21944;DHT22;11136;48.778;9.126;2022-11-14T05:31:16;5.90;99.90
21944;DHT22;11136;48.778;9.126;2022-11-14T05:33:42;5.90;99.90
21944;DHT22;11136;48.778;9.126;2022-11-14T05:36:11;5.90;99.90
21944;DHT22;11136;48.778;9.126;2022-11-14T05:38:37;5.90;99.90
21944;DHT22;11136;48.778;9.126;2022-11-14T05:41:06;5.90;99.90
21944;DHT22;11136;48.778;9.126;2022-11-14T05:43:33;6.00;99.90
21944;DHT22;11136;48.778;9.126;2022-11-14T05:46:04;5.90;99.90
21944;DHT22;11136;48.778;9.126;2022-11-14T05:48:30;6.00;99.90
21944;DHT22;11136;48.778;9.126;2022-11-14T05:50:56;6.00;99.90
21944;DHT22;11136;48.778;9.126;2022-11-14T05:53:23;6.00;99.90
21944;DHT22;11136;48.778;9.126;2022-11-14T05:55:48;6.00;99.90
21944;DHT22;11136;48.778;9.126;2022-11-14T05:58:14;5.90;99.90
21944;DHT22;11136;48.778;9.126;2022-11-14T06:00:39;6.00;99.90
21944;DHT22;11136;48.778;9.126;2022-11-14T06:03:05;6.00;99.90
21944;DHT22;11136;48.778;9.126;2022-11-14T06:05:31;6.00;99.90
21944;DHT22;11136;48.778;9.126;2022-11-14T06:07:58;6.00;99.90
21944;DHT22;11136;48.778;9.126;2022-11-14T06:10:24;6.00;99.90
21944;DHT22;11136;48.778;9.126;2022-11-14T06:12:50;6.00;99.90
21944;DHT22;11136;48.778;9.126;2022-11-14T06:15:15;6.10;99.90
21944;DHT22;11136;48.778;9.126;2022-11-14T06:17:41;6.10;99.90
21944;DHT22;11136;48.778;9.126;2022-11-14T06:20:07;6.10;99.90
21944;DHT22;11136;48.778;9.126;2022-11-14T06:22:33;6.10;99.90
21944;DHT22;11136;48.778;9.126;2022-11-14T06:25:00;6.20;99.90
21944;DHT22;11136;48.778;9.126;2022-11-14T06:27:26;6.20;99.90
21944;DHT22;11136;48.778;9.126;2022-11-14T06:29:51;6.20;99.90
21944;DHT22;11136;48.778;9.126;2022-11-14T06:32:17;6.20;99.90
21944;DHT22;11136;48.778;9.126;2022-11-14T06:34:43;6.20;99.90
21944;DHT22;11136;48.778;9.126;2022-11-14T06:37:08;6.20;99.90
21944;DHT22;11136;48.778;9.126;2022-11-14T06:39:34;6.30;99.90
21944;DHT22;11136;48.778;9.126;2022-11-14T06:41:59;6.30;99.90
21944;DHT22;11136;48.778;9.126;2022-11-14T06:44:25;6.30;99.90
21944;DHT22;11136;48.778;9.126;2022-11-14T06:46:50;6.40;99.90
21944;DHT22;11136;48.778;9.126;2022-11-14T06:49:16;6.40;99.90
21944;DHT22;11136;48.778;9.126;2022-11-14T06:51:42;6.40;99.90
21944;DHT22;11136;48.778;9.126;2022-11-14T06:54:10;6.50;99.90
21944;DHT22;11136;48.778;9.126;2022-11-14T06:56:36;6.50;99.90
21944;DHT22;11136;48.778;9.126;2022-11-14T06:59:02;6.50;99.90
21944;DHT22;11136;48.778;9.126;2022-11-14T07:01:28;6.60;99.90
21944;DHT22;11136;48.778;9.126;2022-11-14T07:03:54;6.60;99.90
21944;DHT22;11136;48.778;9.126;2022-11-14T07:06:24;6.60;99.90
21944;DHT22;11136;48.778;9.126;2022-11-14T07:08:54;6.60;99.90
21944;DHT22;11136;48.778;9.126;2022-11-14T07:11:22;6.70;99.90
21944;DHT22;11136;48.778;9.126;2022-11-14T07:13:53;6.70;99.90
21944;DHT22;11136;48.778;9.126;2022-11-14T07:16:21;6.70;99.90
21944;DHT22;11136;48.778;9.126;2022-11-14T07:18:48;6.70;99.90
21944;DHT22;11136;48.778;9.126;2022-11-14T07:21:14;6.80;99.90
21944;DHT22;11136;48.778;9.126;2022-11-14T07:23:40;6.80;99.90
21944;DHT22;11136;48.778;9.126;2022-11-14T07:26:07;6.80;99.90
21944;DHT22;11136;48.778;9.126;2022-11-14T07:28:35;6.90;99.90
21944;DHT22;11136;48.778;9.126;2022-11-14T07:31:08;6.90;99.90
21944;DHT22;11136;48.778;9.126;2022-11-14T07:33:34;6.90;99.90
21944;DHT22;11136;48.778;9.126;2022-11-14T07:36:00;6.90;99.90
21944;DHT22;11136;48.778;9.126;2022-11-14T07:38:26;6.90;99.90
21944;DHT22;11136;48.778;9.126;2022-11-14T07:40:56;6.90;99.90
21944;DHT22;11136;48.778;9.126;2022-11-14T07:43:22;7.00;99.90
21944;DHT22;11136;48.778;9.126;2022-11-14T07:45:48;7.00;99.90
21944;DHT22;11136;48.778;9.126;2022-11-14T07:48:14;7.00;99.90
21944;DHT22;11136;48.778;9.126;2022-11-14T07:50:39;7.00;99.90
21944;DHT22;11136;48.778;9.126;2022-11-14T07:53:05;7.00;99.90
21944;DHT22;11136;48.778;9.126;2022-11-14T07:55:31;7.00;99.90
21944;DHT22;11136;48.778;9.126;2022-11-14T07:58:00;7.00;99.90
21944;DHT22;11136;48.778;9.126;2022-11-14T08:00:25;7.00;99.90
21944;DHT22;11136;48.778;9.126;2022-11-14T08:02:51;7.00;99.90
21944;DHT22;11136;48.778;9.126;2022-11-14T08:05:16;7.00;99.90
21944;DHT22;11136;48.778;9.126;2022-11-14T08:07:42;7.00;99.90
21944;DHT22;11136;48.778;9.126;2022-11-14T08:10:09;7.10;99.90
21944;DHT22;11136;48.778;9.126;2022-11-14T08:12:36;7.20;99.90
21944;DHT22;11136;48.778;9.126;2022-11-14T08:15:08;7.20;99.90
21944;DHT22;11136;48.778;9.126;2022-11-14T08:17:33;7.20;99.90
21944;DHT22;11136;48.778;9.126;2022-11-14T08:19:59;7.30;99.90
21944;DHT22;11136;48.778;9.126;2022-11-14T08:22:24;7.40;99.90
21944;DHT22;11136;48.778;9.126;2022-11-14T08:24:50;7.40;99.90
21944;DHT22;11136;48.778;9.126;2022-11-14T08:27:16;7.50;99.90
21944;DHT22;11136;48.778;9.126;2022-11-14T08:29:42;7.60;99.90
21944;DHT22;11136;48.778;9.126;2022-11-14T08:32:07;7.70;99.90
21944;DHT22;11136;48.778;9.126;2022-11-14T08:34:33;7.80;99.90
21944;DHT22;11136;48.778;9.126;2022-11-14T08:37:00;7.80;99.90
21944;DHT22;11136;48.778;9.126;2022-11-14T08:39:26;7.80;99.90
21944;DHT22;11136;48.778;9.126;2022-11-14T08:41:52;7.90;99.90
21944;DHT22;11136;48.778;9.126;2022-11-14T08:44:17;7.90;99.90
21944;DHT22;11136;48.778;9.126;2022-11-14T08:46:43;8.00;99.90
21944;DHT22;11136;48.778;9.126;2022-11-14T08:49:08;8.00;99.90
21944;DHT22;11136;48.778;9.126;2022-11-14T08:51:34;8.10;99.90
21944;DHT22;11136;48.778;9.126;2022-11-14T08:53:59;8.30;99.90
21944;DHT22;11136;48.778;9.126;2022-11-14T08:56:25;8.10;99.90
21944;DHT22;11136;48.778;9.126;2022-11-14T08:58:50;8.10;99.90
21944;DHT22;11136;48.778;9.126;2022-11-14T09:01:16;8.20;99.90
21944;DHT22;11136;48.778;9.126;2022-11-14T09:03:41;8.20;99.90
21944;DHT22;11136;48.778;9.126;2022-11-14T09:06:07;8.20;99.90
21944;DHT22;11136;48.778;9.126;2022-11-14T09:08:32;8.20;99.90
21944;DHT22;11136;48.778;9.126;2022-11-14T09:11:02;8.20;99.90
21944;DHT22;11136;48.778;9.126;2022-11-14T09:13:31;8.30;99.90
21944;DHT22;11136;48.778;9.126;2022-11-14T09:15:57;8.30;99.90
21944;DHT22;11136;48.778;9.126;2022-11-14T09:18:23;8.30;99.90
21944;DHT22;11136;48.778;9.126;2022-11-14T09:20:48;8.30;99.90
21944;DHT22;11136;48.778;9.126;2022-11-14T09:23:14;8.40;99.90
21944;DHT22;11136;48.778;9.126;2022-11-14T09:25:39;8.40;99.90
21944;DHT22;11136;48.778;9.126;2022-11-14T09:28:05;8.40;99.90
21944;DHT22;11136;48.778;9.126;2022-11-14T09:30:32;8.50;99.90
21944;DHT22;11136;48.778;9.126;2022-11-14T09:32:59;8.50;99.90
21944;DHT22;11136;48.778;9.126;2022-11-14T09:35:26;8.60;99.90
21944;DHT22;11136;48.778;9.126;2022-11-14T09:38:02;8.60;99.90
21944;DHT22;11136;48.778;9.126;2022-11-14T09:40:29;8.60;99.90
21944;DHT22;11136;48.778;9.126;2022-11-14T09:43:26;8.60;99.90
21944;DHT22;11136;48.778;9.126;2022-11-14T09:45:53;8.70;99.90
21944;DHT22;11136;48.778;9.126;2022-11-14T09:48:21;8.70;99.90
21944;DHT22;11136;48.778;9.126;2022-11-14T09:51:07;8.70;99.90
21944;DHT22;11136;48.778;9.126;2022-11-14T09:53:41;8.90;99.90
21944;DHT22;11136;48.778;9.126;2022-11-14T09:56:22;8.80;99.90
21944;DHT22;11136;48.778;9.126;2022-11-14T09:58:49;8.90;99.90
21944;DHT22;11136;48.778;9.126;2022-11-14T10:01:27;8.90;99.90
21944;DHT22;11136;48.778;9.126;2022-11-14T10:04:12;9.00;99.90
21944;DHT22;11136;48.778;9.126;2022-11-14T10:12:13;9.50;99.90
21944;DHT22;11136;48.778;9.126;2022-11-14T10:17:55;9.60;99.90
21944;DHT22;11136;48.778;9.126;2022-11-14T10:20:28;9.50;99.90
21944;DHT22;11136;48.778;9.126;2022-11-14T10:28:29;9.90;99.90
21944;DHT22;11136;48.778;9.126;2022-11-14T10:31:19;10.10;99.90
21944;DHT22;11136;48.778;9.126;2022-11-14T10:39:20;10.30;99.90
21944;DHT22;11136;48.778;9.126;2022-11-14T10:41:51;10.20;99.90
21944;DHT22;11136;48.778;9.126;2022-11-14T10:44:31;10.20;99.90
21944;DHT22;11136;48.778;9.126;2022-11-14T10:47:02;10.30;99.90
21944;DHT22;11136;48.778;9.126;2022-11-14T10:49:30;10.30;99.90
21944;DHT22;11136;48.778;9.126;2022-11-14T10:51:58;10.40;99.90
21944;DHT22;11136;48.778;9.126;2022-11-14T10:54:40;10.40;99.90
21944;DHT22;11136;48.778;9.126;2022-11-14T10:57:20;10.50;99.90
21944;DHT22;11136;48.778;9.126;2022-11-14T10:59:46;10.40;99.90
21944;DHT22;11136;48.778;9.126;2022-11-14T11:02:12;10.60;99.90
21944;DHT22;11136;48.778;9.126;2022-11-14T11:04:42;10.70;99.90
21944;DHT22;11136;48.778;9.126;2022-11-14T11:09:38;10.80;99.90
21944;DHT22;11136;48.778;9.126;2022-11-14T11:12:42;10.80;99.90
21944;DHT22;11136;48.778;9.126;2022-11-14T11:15:22;10.90;99.90
21944;DHT22;11136;48.778;9.126;2022-11-14T11:20:32;11.00;99.90
21944;DHT22;11136;48.778;9.126;2022-11-14T11:23:03;11.00;99.90
21944;DHT22;11136;48.778;9.126;2022-11-14T11:25:30;11.10;99.90
21944;DHT22;11136;48.778;9.126;2022-11-14T11:30:39;11.30;99.90
21944;DHT22;11136;48.778;9.126;2022-11-14T11:33:24;11.30;99.90
21944;DHT22;11136;48.778;9.126;2022-11-14T11:35:52;11.20;99.90
21944;DHT22;11136;48.778;9.126;2022-11-14T11:38:20;11.10;99.90
21944;DHT22;11136;48.778;9.126;2022-11-14T11:40:50;11.50;99.90
21944;DHT22;11136;48.778;9.126;2022-11-14T11:43:29;11.20;99.90
21944;DHT22;11136;48.778;9.126;2022-11-14T11:46:03;11.60;99.90
21944;DHT22;11136;48.778;9.126;2022-11-14T11:48:36;11.20;99.90
21944;DHT22;11136;48.778;9.126;2022-11-14T11:51:04;11.20;99.90
21944;DHT22;11136;48.778;9.126;2022-11-14T11:53:37;11.20;99.90
21944;DHT22;11136;48.778;9.126;2022-11-14T11:56:16;11.20;99.90
21944;DHT22;11136;48.778;9.126;2022-11-14T12:01:12;11.20;99.90
21944;DHT22;11136;48.778;9.126;2022-11-14T12:03:41;11.20;99.90
21944;DHT22;11136;48.778;9.126;2022-11-14T12:11:09;11.10;99.90
21944;DHT22;11136;48.778;9.126;2022-11-14T12:19:55;11.10;99.90
21944;DHT22;11136;48.778;9.126;2022-11-14T12:22:54;11.10;99.90
21944;DHT22;11136;48.778;9.126;2022-11-14T12:25:55;11.20;99.90
21944;DHT22;11136;48.778;9.126;2022-11-14T12:28:35;11.30;99.90
21944;DHT22;11136;48.778;9.126;2022-11-14T12:31:11;11.40;99.90
21944;DHT22;11136;48.778;9.126;2022-11-14T12:33:51;11.50;99.90
21944;DHT22;11136;48.778;9.126;2022-11-14T12:36:18;11.60;99.90
21944;DHT22;11136;48.778;9.126;2022-11-14T12:38:51;11.80;99.90
21944;DHT22;11136;48.778;9.126;2022-11-14T12:41:27;12.00;99.90
21944;DHT22;11136;48.778;9.126;2022-11-14T12:44:29;12.00;99.90
21944;DHT22;11136;48.778;9.126;2022-11-14T12:58:11;12.80;99.90
21944;DHT22;11136;48.778;9.126;2022-11-14T13:03:15;13.00;99.90
21944;DHT22;11136;48.778;9.126;2022-11-14T13:14:14;13.20;99.90
21944;DHT22;11136;48.778;9.126;2022-11-14T13:19:56;13.40;99.90
21944;DHT22;11136;48.778;9.126;2022-11-14T13:22:45;13.40;99.90
21944;DHT22;11136;48.778;9.126;2022-11-14T13:25:14;13.40;99.90
21944;DHT22;11136;48.778;9.126;2022-11-14T13:27:41;13.40;99.90
21944;DHT22;11136;48.778;9.126;2022-11-14T13:30:07;13.30;99.90
21944;DHT22;11136;48.778;9.126;2022-11-14T13:35:16;13.40;99.90
21944;DHT22;11136;48.778;9.126;2022-11-14T13:38:08;13.40;99.90
21944;DHT22;11136;48.778;9.126;2022-11-14T13:40:59;13.30;99.90
21944;DHT22;11136;48.778;9.126;2022-11-14T13:44:13;13.60;99.90
21944;DHT22;11136;48.778;9.126;2022-11-14T13:52:16;13.60;99.90
21944;DHT22;11136;48.778;9.126;2022-11-14T13:54:49;13.60;99.90
21944;DHT22;11136;48.778;9.126;2022-11-14T14:00:13;13.60;99.90
21944;DHT22;11136;48.778;9.126;2022-11-14T14:06:10;13.70;99.90
21944;DHT22;11136;48.778;9.126;2022-11-14T14:18:44;13.80;99.90
21944;DHT22;11136;48.778;9.126;2022-11-14T14:20:39;13.70;99.90
21944;DHT22;11136;48.778;9.126;2022-11-14T14:23:11;13.70;99.90
21944;DHT22;11136;48.778;9.126;2022-11-14T14:26:19;13.60;99.90
21944;DHT22;11136;48.778;9.126;2022-11-14T14:28:58;13.60;99.90
21944;DHT22;11136;48.778;9.126;2022-11-14T14:31:34;13.60;99.90
21944;DHT22;11136;48.778;9.126;2022-11-14T14:34:00;13.60;99.90
21944;DHT22;11136;48.778;9.126;2022-11-14T14:36:28;13.60;99.90
21944;DHT22;11136;48.778;9.126;2022-11-14T14:39:27;13.60;99.90
21944;DHT22;11136;48.778;9.126;2022-11-14T14:41:57;13.60;99.90
21944;DHT22;11136;48.778;9.126;2022-11-14T14:44:31;13.60;99.90
21944;DHT22;11136;48.778;9.126;2022-11-14T14:47:15;13.60;99.90
21944;DHT22;11136;48.778;9.126;2022-11-14T14:49:42;13.60;99.90
21944;DHT22;11136;48.778;9.126;2022-11-14T14:54:56;13.50;99.90
21944;DHT22;11136;48.778;9.126;2022-11-14T14:57:21;13.70;99.90
21944;DHT22;11136;48.778;9.126;2022-11-14T14:59:58;13.40;99.90
21944;DHT22;11136;48.778;9.126;2022-11-14T15:02:24;13.20;99.90
21944;DHT22;11136;48.778;9.126;2022-11-14T15:04:50;13.30;99.90
21944;DHT22;11136;48.778;9.126;2022-11-14T15:07:23;13.30;99.90
21944;DHT22;11136;48.778;9.126;2022-11-14T15:09:52;13.30;99.90
21944;DHT22;11136;48.778;9.126;2022-11-14T15:12:18;13.20;99.90
21944;DHT22;11136;48.778;9.126;2022-11-14T15:14:44;13.10;99.90
21944;DHT22;11136;48.778;9.126;2022-11-14T15:17:11;13.10;99.90
21944;DHT22;11136;48.778;9.126;2022-11-14T15:19:39;13.10;99.90
21944;DHT22;11136;48.778;9.126;2022-11-14T15:24:40;13.10;99.90
21944;DHT22;11136;48.778;9.126;2022-11-14T15:27:14;13.00;99.90
21944;DHT22;11136;48.778;9.126;2022-11-14T15:29:53;13.00;99.90
21944;DHT22;11136;48.778;9.126;2022-11-14T15:32:23;12.90;99.90
21944;DHT22;11136;48.778;9.126;2022-11-14T15:35:09;13.10;99.90
21944;DHT22;11136;48.778;9.126;2022-11-14T15:37:35;12.90;99.90
21944;DHT22;11136;48.778;9.126;2022-11-14T15:40:30;12.90;99.90
21944;DHT22;11136;48.778;9.126;2022-11-14T15:42:56;12.80;99.90
21944;DHT22;11136;48.778;9.126;2022-11-14T15:45:37;12.80;99.90
21944;DHT22;11136;48.778;9.126;2022-11-14T15:48:11;12.80;99.90
21944;DHT22;11136;48.778;9.126;2022-11-14T15:50:38;12.90;99.90
21944;DHT22;11136;48.778;9.126;2022-11-14T15:53:25;12.80;99.90
21944;DHT22;11136;48.778;9.126;2022-11-14T15:55:52;12.70;99.90
21944;DHT22;11136;48.778;9.126;2022-11-14T15:58:17;12.70;99.90
21944;DHT22;11136;48.778;9.126;2022-11-14T16:00:48;12.60;99.90
21944;DHT22;11136;48.778;9.126;2022-11-14T16:03:17;12.80;99.90
21944;DHT22;11136;48.778;9.126;2022-11-14T16:05:43;12.60;99.90
21944;DHT22;11136;48.778;9.126;2022-11-14T16:08:10;12.30;99.90
21944;DHT22;11136;48.778;9.126;2022-11-14T16:10:36;12.50;99.90
21944;DHT22;11136;48.778;9.126;2022-11-14T16:13:02;12.40;99.90
21944;DHT22;11136;48.778;9.126;2022-11-14T16:15:29;12.40;99.90
21944;DHT22;11136;48.778;9.126;2022-11-14T16:17:54;12.30;99.90
21944;DHT22;11136;48.778;9.126;2022-11-14T16:20:22;12.30;99.90
21944;DHT22;11136;48.778;9.126;2022-11-14T16:22:49;12.20;99.90
21944;DHT22;11136;48.778;9.126;2022-11-14T16:27:44;12.10;99.90
21944;DHT22;11136;48.778;9.126;2022-11-14T16:30:11;12.00;99.90
21944;DHT22;11136;48.778;9.126;2022-11-14T16:32:38;11.90;99.90
21944;DHT22;11136;48.778;9.126;2022-11-14T16:35:13;11.80;99.90
21944;DHT22;11136;48.778;9.126;2022-11-14T16:37:38;11.80;99.90
21944;DHT22;11136;48.778;9.126;2022-11-14T16:40:05;11.70;99.90
21944;DHT22;11136;48.778;9.126;2022-11-14T16:42:31;11.70;99.90
21944;DHT22;11136;48.778;9.126;2022-11-14T16:45:00;11.70;99.90
21944;DHT22;11136;48.778;9.126;2022-11-14T16:47:26;11.70;99.90
21944;DHT22;11136;48.778;9.126;2022-11-14T16:49:52;11.60;99.90
21944;DHT22;11136;48.778;9.126;2022-11-14T16:52:18;11.50;99.90
21944;DHT22;11136;48.778;9.126;2022-11-14T16:54:44;11.50;99.90
21944;DHT22;11136;48.778;9.126;2022-11-14T16:57:10;11.50;99.90
21944;DHT22;11136;48.778;9.126;2022-11-14T16:59:36;11.60;99.90
21944;DHT22;11136;48.778;9.126;2022-11-14T17:02:02;11.40;99.90
21944;DHT22;11136;48.778;9.126;2022-11-14T17:04:27;11.30;99.90
21944;DHT22;11136;48.778;9.126;2022-11-14T17:06:53;11.30;99.90
21944;DHT22;11136;48.778;9.126;2022-11-14T17:09:18;11.30;99.90
21944;DHT22;11136;48.778;9.126;2022-11-14T17:11:44;11.30;99.90
21944;DHT22;11136;48.778;9.126;2022-11-14T17:14:10;11.20;99.90
21944;DHT22;11136;48.778;9.126;2022-11-14T17:16:37;11.20;99.90
21944;DHT22;11136;48.778;9.126;2022-11-14T17:19:02;11.20;99.90
21944;DHT22;11136;48.778;9.126;2022-11-14T17:21:28;11.10;99.90
21944;DHT22;11136;48.778;9.126;2022-11-14T17:23:59;11.10;99.90
21944;DHT22;11136;48.778;9.126;2022-11-14T17:26:29;11.10;99.90
21944;DHT22;11136;48.778;9.126;2022-11-14T17:28:54;11.00;99.90
21944;DHT22;11136;48.778;9.126;2022-11-14T17:31:20;10.80;99.90
21944;DHT22;11136;48.778;9.126;2022-11-14T17:33:50;11.00;99.90